Time;durP1;ratioP1;P1;durP2;ratioP2;P2;SDS_P1;SDS_P2;PMS_P1;PMS_P2;Temp;Humidity;BMP_temperature;BMP_pressure;BME280_temperature;BME280_humidity;BME280_pressure;Samples;Min_cycle;Max_cycle;Signal;HPM_P1;HPM_P2
2022/01/17 00:02:23;;;;;;;17.52;2.10;;;;;;;6.51;71.81;103204.63;4996824;28;20053;-69
2022/01/17 00:04:48;;;;;;;12.45;2.15;;;;;;;6.51;71.83;103204.63;4994699;28;20511;-68
2022/01/17 00:07:15;;;;;;;13.02;2.28;;;;;;;6.49;72.14;103201.09;5022710;28;20053;-69
2022/01/17 00:09:40;;;;;;;12.52;2.00;;;;;;;6.49;72.24;103198.47;5016319;28;20025;-69
2022/01/17 00:12:06;;;;;;;15.38;2.28;;;;;;;6.50;72.78;103204.59;5002130;28;20037;-69
2022/01/17 00:14:38;;;;;;;15.82;2.03;;;;;;;6.41;73.21;103202.66;4988188;28;20026;-70
2022/01/17 00:17:23;;;;;;;10.52;2.20;;;;;;;6.24;74.01;103208.41;5003980;28;20374;-70
2022/01/17 00:19:53;;;;;;;13.27;2.60;;;;;;;6.18;74.06;103219.59;5004481;28;20026;-69
2022/01/17 00:22:20;;;;;;;16.17;2.22;;;;;;;6.12;73.81;103229.06;5014862;28;20033;-69
2022/01/17 00:24:46;;;;;;;10.95;2.53;;;;;;;6.02;73.80;103227.94;5013607;28;20400;-68
2022/01/17 00:27:12;;;;;;;13.73;2.47;;;;;;;5.94;73.77;103233.84;4994972;28;20608;-70
2022/01/17 00:29:37;;;;;;;11.20;2.42;;;;;;;5.82;73.74;103244.91;4990425;28;20116;-68
2022/01/17 00:32:04;;;;;;;11.55;1.88;;;;;;;5.73;73.85;103242.06;5005317;28;20117;-68
2022/01/17 00:34:29;;;;;;;26.25;3.13;;;;;;;5.64;74.09;103237.50;5004674;28;20059;-70
2022/01/17 00:36:54;;;;;;;11.52;1.70;;;;;;;5.52;74.45;103240.69;5004293;28;20041;-69
2022/01/17 00:39:20;;;;;;;11.70;1.92;;;;;;;5.47;74.72;103237.03;5003352;28;20431;-70
2022/01/17 00:41:45;;;;;;;16.63;2.63;;;;;;;5.44;74.74;103221.28;5004299;28;20424;-68
2022/01/17 00:44:11;;;;;;;21.40;2.53;;;;;;;5.34;74.93;103208.81;5005304;28;20558;-69
2022/01/17 00:46:36;;;;;;;13.23;2.55;;;;;;;5.28;74.99;103202.59;5005103;28;20478;-70
2022/01/17 00:49:02;;;;;;;12.45;2.00;;;;;;;5.21;75.51;103211.06;5005675;28;20032;-68
2022/01/17 00:51:28;;;;;;;24.13;2.55;;;;;;;5.15;75.80;103221.41;5004709;28;20508;-70
2022/01/17 00:53:53;;;;;;;11.05;2.60;;;;;;;5.09;75.96;103231.69;5012488;28;20132;-70
2022/01/17 00:56:20;;;;;;;24.98;4.95;;;;;;;5.04;76.01;103236.78;5023968;28;20071;-71
2022/01/17 00:58:45;;;;;;;13.30;2.60;;;;;;;5.00;76.10;103224.47;5023318;28;20025;-70
2022/01/17 01:01:10;;;;;;;16.83;2.20;;;;;;;4.94;76.14;103225.19;5021856;28;20033;-70
2022/01/17 01:03:36;;;;;;;11.02;2.25;;;;;;;4.90;76.52;103220.69;5004221;28;20022;-70
2022/01/17 01:06:02;;;;;;;16.25;2.83;;;;;;;4.85;76.45;103215.31;5004615;28;20547;-71
2022/01/17 01:08:27;;;;;;;19.27;2.60;;;;;;;4.80;76.21;103202.16;5004367;28;20562;-70
2022/01/17 01:10:52;;;;;;;16.85;2.53;;;;;;;4.78;76.46;103206.44;5004304;28;20034;-69
2022/01/17 01:13:22;;;;;;;19.27;2.88;;;;;;;4.75;76.53;103208.06;5006991;28;20075;-72
2022/01/17 01:16:08;;;;;;;;;;;;;;;4.69;76.74;103219.22;5013531;28;20499;-69
2022/01/17 01:29:45;;;;;;;18.27;2.47;;;;;;;4.72;76.65;103232.38;4965834;28;20041;-68
2022/01/17 01:32:11;;;;;;;17.02;2.72;;;;;;;4.76;76.45;103242.06;4992795;28;20512;-70
2022/01/17 01:34:41;;;;;;;19.48;2.60;;;;;;;4.79;76.34;103242.16;5005418;28;20029;-70
2022/01/17 01:37:06;;;;;;;22.08;2.95;;;;;;;4.80;76.25;103243.97;5009168;28;20225;-70
2022/01/17 01:39:33;;;;;;;12.65;2.33;;;;;;;4.74;76.56;103251.63;5007023;28;20121;-71
2022/01/17 01:41:59;;;;;;;15.68;2.17;;;;;;;4.73;76.45;103251.56;5016504;28;20067;-71
2022/01/17 01:44:25;;;;;;;9.27;2.05;;;;;;;4.66;76.78;103248.75;5021177;28;20443;-71
2022/01/17 01:46:52;;;;;;;10.07;1.73;;;;;;;4.62;77.17;103249.53;5026554;28;20028;-70
2022/01/17 01:49:19;;;;;;;11.32;2.15;;;;;;;4.60;77.32;103255.53;5026840;28;20025;-69
2022/01/17 01:51:45;;;;;;;13.77;1.98;;;;;;;4.53;77.68;103259.69;5027237;28;20112;-68
2022/01/17 01:54:11;;;;;;;11.73;2.05;;;;;;;4.52;77.70;103264.00;5025717;28;20033;-70
2022/01/17 01:56:37;;;;;;;18.27;2.45;;;;;;;4.46;77.90;103262.94;5027412;28;20021;-69
2022/01/17 01:59:04;;;;;;;15.55;2.40;;;;;;;4.43;78.01;103264.59;5019525;28;20041;-69
2022/01/17 02:01:29;;;;;;;17.05;2.25;;;;;;;4.35;78.02;103246.94;5017252;28;20042;-70
2022/01/17 02:03:54;;;;;;;25.60;2.15;;;;;;;4.30;78.50;103257.22;5024709;28;20025;-71
2022/01/17 02:06:20;;;;;;;9.93;2.00;;;;;;;4.23;78.90;103252.66;5025775;28;20119;-70
2022/01/17 02:08:45;;;;;;;13.45;1.70;;;;;;;4.20;78.90;103250.84;5021515;28;20021;-69
2022/01/17 02:11:11;;;;;;;21.50;2.38;;;;;;;4.21;78.88;103252.59;5007490;28;20092;-71
2022/01/17 02:13:38;;;;;;;14.82;2.13;;;;;;;4.16;79.20;103248.97;5007002;28;20034;-69
2022/01/17 02:16:05;;;;;;;17.55;2.03;;;;;;;4.16;79.34;103239.41;5007685;28;20030;-71
2022/01/17 02:18:31;;;;;;;34.05;9.45;;;;;;;4.20;79.20;103235.19;5010778;28;20038;-69
2022/01/17 02:23:43;;;;;;;19.90;2.63;;;;;;;4.10;79.47;103233.13;5007330;28;20049;-70
2022/01/17 02:26:09;;;;;;;12.05;1.90;;;;;;;4.10;79.47;103230.53;5012575;28;20506;-69
2022/01/17 02:28:36;;;;;;;13.90;1.95;;;;;;;4.11;79.45;103245.31;5026958;28;20053;-69
2022/01/17 02:31:05;;;;;;;11.63;1.95;;;;;;;4.14;79.35;103242.81;5024974;28;20052;-69
2022/01/17 02:33:34;;;;;;;21.52;2.13;;;;;;;4.15;79.62;103252.41;5022090;28;20038;-69
2022/01/17 02:36:00;;;;;;;13.27;1.92;;;;;;;4.13;79.79;103238.44;5005164;28;20058;-69
2022/01/17 02:38:26;;;;;;;15.73;2.42;;;;;;;4.13;79.87;103248.88;5006934;28;20113;-70
2022/01/17 02:40:52;;;;;;;18.20;2.10;;;;;;;4.13;80.06;103246.28;5005095;28;20091;-70
2022/01/17 02:43:20;;;;;;;12.63;1.90;;;;;;;4.10;80.15;103247.06;5013203;28;20033;-69
2022/01/17 02:48:17;;;;;;;14.15;2.03;;;;;;;4.08;80.48;103250.44;5024388;28;20793;-69
2022/01/17 02:50:42;;;;;;;14.52;2.20;;;;;;;4.07;80.53;103248.69;5027333;28;20025;-69
2022/01/17 02:53:09;;;;;;;16.00;2.58;;;;;;;4.06;81.07;103259.97;5026073;28;20053;-69
2022/01/17 02:55:35;;;;;;;13.10;2.28;;;;;;;4.07;81.19;103257.41;5025350;28;20659;-69
2022/01/17 02:58:00;;;;;;;21.70;5.30;;;;;;;4.09;81.14;103257.47;5026359;28;20044;-69
2022/01/17 03:00:26;;;;;;;21.38;4.45;;;;;;;4.09;81.29;103252.25;5007438;28;20037;-69
2022/01/17 03:02:51;;;;;;;10.57;2.90;;;;;;;4.11;81.40;103251.44;5007798;28;20068;-70
2022/01/17 03:05:17;;;;;;;11.60;2.00;;;;;;;4.12;81.65;103253.22;5026137;28;20111;-68
2022/01/17 03:07:43;;;;;;;27.15;2.78;;;;;;;4.06;82.11;103266.03;5025219;28;20022;-69
2022/01/17 03:10:17;;;;;;;22.75;3.13;;;;;;;4.06;82.17;103268.66;5025144;28;20032;-69
2022/01/17 03:12:42;;;;;;;14.93;2.47;;;;;;;4.08;82.37;103258.28;5007006;28;20029;-71
2022/01/17 03:15:08;;;;;;;18.02;2.00;;;;;;;4.12;82.73;103254.94;5005948;28;20037;-68
2022/01/17 03:17:33;;;;;;;10.98;2.15;;;;;;;4.16;82.77;103255.06;5006645;28;20033;-68
2022/01/17 03:19:59;;;;;;;19.90;2.50;;;;;;;4.16;82.68;103254.19;5018578;28;20472;-70
2022/01/17 03:22:24;;;;;;;12.23;2.10;;;;;;;4.16;82.88;103244.63;5026403;28;20725;-68
2022/01/17 03:24:50;;;;;;;21.60;2.80;;;;;;;4.12;83.32;103257.56;5015893;28;20042;-69
2022/01/17 03:27:16;;;;;;;21.63;2.83;;;;;;;4.09;83.61;103241.81;5005948;28;20121;-69
2022/01/17 03:29:41;;;;;;;26.58;2.95;;;;;;;4.08;83.96;103240.91;5005040;28;20025;-70
2022/01/17 03:32:07;;;;;;;18.15;4.65;;;;;;;4.13;84.43;103241.91;5004978;28;20419;-70
2022/01/17 03:34:32;;;;;;;18.85;3.15;;;;;;;4.21;84.93;103236.09;5006002;28;20503;-69
2022/01/17 03:36:57;;;;;;;22.85;3.15;;;;;;;4.23;84.70;103234.38;5005506;28;20036;-69
2022/01/17 03:39:23;;;;;;;21.98;3.55;;;;;;;4.25;85.23;103235.34;5005652;28;20030;-69
2022/01/17 03:41:48;;;;;;;18.10;3.00;;;;;;;4.21;85.42;103230.88;5005588;28;20117;-69
2022/01/17 03:44:14;;;;;;;19.67;3.17;;;;;;;4.25;86.02;103246.66;5006273;28;20010;-69
2022/01/17 03:46:39;;;;;;;28.70;3.17;;;;;;;4.29;85.98;103238.09;5005093;28;20040;-70
2022/01/17 03:49:05;;;;;;;25.52;4.18;;;;;;;4.30;86.09;103242.47;5005194;28;20042;-70
2022/01/17 03:51:30;;;;;;;23.67;4.60;;;;;;;4.28;85.86;103225.00;5005379;28;20109;-69
2022/01/17 03:53:56;;;;;;;14.82;3.63;;;;;;;4.22;86.03;103217.88;5004339;28;20075;-70
2022/01/17 03:56:21;;;;;;;27.10;4.25;;;;;;;4.21;86.00;103223.03;5008051;28;20053;-68
2022/01/17 03:58:47;;;;;;;33.70;5.88;;;;;;;4.16;86.45;103226.38;5025635;28;20508;-69
2022/01/17 04:01:12;;;;;;;18.75;4.63;;;;;;;4.18;86.66;103226.41;5025587;28;20325;-68
2022/01/17 04:03:38;;;;;;;25.98;4.70;;;;;;;4.15;86.79;103226.31;5025172;28;20376;-69
2022/01/17 04:06:04;;;;;;;27.10;5.55;;;;;;;4.12;87.22;103234.06;4988580;28;20109;-68
2022/01/17 04:08:29;;;;;;;23.95;5.38;;;;;;;4.15;87.38;103240.25;4985555;28;20366;-69
2022/01/17 04:10:54;;;;;;;26.75;6.80;;;;;;;4.12;87.79;103232.31;4984423;28;20105;-68
2022/01/17 04:13:20;;;;;;;33.75;6.70;;;;;;;4.11;87.64;103240.09;5008654;28;20053;-69
2022/01/17 04:15:45;;;;;;;24.98;5.57;;;;;;;4.09;87.95;103247.03;5025795;28;20484;-69
2022/01/17 04:18:11;;;;;;;24.83;5.40;;;;;;;4.11;88.21;103247.94;5025153;28;20025;-68
2022/01/17 04:20:38;;;;;;;21.85;6.35;;;;;;;4.18;88.21;103260.34;5012826;28;20041;-69
2022/01/17 04:23:06;;;;;;;28.50;6.38;;;;;;;4.18;88.21;103260.34;4985700;28;20477;-68
2022/01/17 04:25:33;;;;;;;32.80;7.47;;;;;;;4.18;88.37;103257.72;4983945;28;20026;-68
2022/01/17 04:28:00;;;;;;;33.13;7.07;;;;;;;4.21;88.52;103263.06;4987040;28;20027;-68
2022/01/17 04:30:26;;;;;;;33.78;6.82;;;;;;;4.23;88.44;103268.31;5023473;28;20090;-70
2022/01/17 04:32:52;;;;;;;30.30;7.25;;;;;;;4.25;88.36;103270.13;5023918;28;20022;-69
2022/01/17 04:35:22;;;;;;;43.97;7.32;;;;;;;4.25;88.40;103277.97;5025312;28;20530;-68
2022/01/17 04:38:05;;;;;;;42.70;7.32;;;;;;;4.27;88.36;103260.63;5007896;28;20065;-70
2022/01/17 04:40:35;;;;;;;31.38;7.35;;;;;;;4.28;88.57;103272.84;5003714;28;20033;-70
2022/01/17 04:43:04;;;;;;;31.05;7.55;;;;;;;4.32;88.72;103265.13;5003232;28;20030;-68
2022/01/17 04:45:30;;;;;;;34.60;7.47;;;;;;;4.31;88.90;103253.81;5002099;28;20037;-69
2022/01/17 04:47:55;;;;;;;31.77;7.50;;;;;;;4.30;88.66;103258.13;5004419;28;20022;-68
2022/01/17 04:50:23;;;;;;;35.08;10.10;;;;;;;4.34;88.56;103258.22;5006926;28;20480;-69
2022/01/17 04:52:50;;;;;;;51.20;13.90;;;;;;;4.36;88.87;103261.78;5007378;28;20381;-69
2022/01/17 04:55:17;;;;;;;32.13;10.45;;;;;;;4.35;88.64;103267.81;5024114;28;20034;-70
2022/01/17 04:57:44;;;;;;;30.92;8.30;;;;;;;4.38;88.46;103265.31;5012666;28;20034;-68
2022/01/17 05:00:12;;;;;;;34.38;8.65;;;;;;;4.40;88.67;103269.72;5008139;28;20041;-67
2022/01/17 05:02:37;;;;;;;36.55;8.30;;;;;;;4.46;88.90;103268.16;5007025;28;20080;-69
2022/01/17 05:05:04;;;;;;;35.13;7.78;;;;;;;4.45;88.44;103275.09;5007567;28;20053;-67
2022/01/17 05:07:31;;;;;;;30.90;6.63;;;;;;;4.46;88.51;103273.38;5008616;28;20100;-69
2022/01/17 05:09:57;;;;;;;30.17;6.93;;;;;;;4.47;88.39;103273.44;5006419;28;20026;-68
2022/01/17 05:12:22;;;;;;;28.50;7.30;;;;;;;4.46;88.33;103270.78;5006150;28;20026;-68
2022/01/17 05:14:50;;;;;;;33.60;7.22;;;;;;;4.47;88.39;103278.66;5008538;28;20018;-71
2022/01/17 05:19:59;;;;;;;34.50;9.10;;;;;;;4.52;88.72;103279.66;5007349;28;20034;-69
2022/01/17 05:22:32;;;;;;;31.88;6.97;;;;;;;4.56;88.86;103280.66;5006557;28;20520;-68
2022/01/17 05:24:59;;;;;;;36.97;8.27;;;;;;;4.58;88.73;103288.56;5006045;28;20048;-67
2022/01/17 05:27:24;;;;;;;34.90;7.03;;;;;;;4.63;88.69;103286.94;5004943;28;20022;-69
2022/01/17 05:29:49;;;;;;;33.60;8.55;;;;;;;4.68;88.30;103291.50;5000839;28;20116;-70
2022/01/17 05:32:15;;;;;;;23.17;7.07;;;;;;;4.77;88.42;103293.50;5008779;28;20068;-68
2022/01/17 05:34:41;;;;;;;33.10;8.25;;;;;;;4.80;88.27;103288.38;5007788;28;20033;-69
2022/01/17 05:37:07;;;;;;;31.88;7.90;;;;;;;4.85;88.06;103283.25;5006592;28;20033;-70
2022/01/17 05:39:33;;;;;;;33.88;8.68;;;;;;;4.94;87.84;103282.66;5007432;28;20034;-67
2022/01/17 05:41:59;;;;;;;28.02;9.10;;;;;;;4.99;87.60;103275.84;5006912;28;20481;-69
2022/01/17 05:44:24;;;;;;;35.17;9.13;;;;;;;5.02;87.46;103269.81;5008035;28;20408;-68
2022/01/17 05:46:49;;;;;;;36.50;10.73;;;;;;;5.03;87.17;103262.00;5008099;28;20439;-68
2022/01/17 05:49:15;;;;;;;25.75;10.63;;;;;;;5.03;87.00;103259.38;5007549;28;20821;-68
2022/01/17 05:51:40;;;;;;;31.75;10.38;;;;;;;4.98;87.15;103253.16;5008118;28;20030;-69
2022/01/17 05:54:06;;;;;;;35.65;9.80;;;;;;;4.95;87.23;103258.31;5007038;28;20021;-68
2022/01/17 05:56:31;;;;;;;28.77;10.13;;;;;;;4.88;87.39;103270.28;5008062;28;20397;-68
2022/01/17 05:58:56;;;;;;;36.95;14.38;;;;;;;4.87;87.46;103278.97;5006211;28;20522;-68
2022/01/17 06:01:22;;;;;;;41.22;14.20;;;;;;;4.86;87.68;103292.00;4997890;28;20100;-68
2022/01/17 06:03:47;;;;;;;43.70;16.55;;;;;;;4.86;87.75;103289.38;4988171;28;20032;-68
2022/01/17 06:06:12;;;;;;;51.15;16.52;;;;;;;4.82;87.71;103285.81;4988046;28;20401;-70
2022/01/17 06:08:38;;;;;;;41.53;15.23;;;;;;;4.76;87.48;103291.72;4987374;28;20058;-69
2022/01/17 06:11:03;;;;;;;47.53;17.08;;;;;;;4.72;87.72;103295.06;5017316;28;20152;-67
2022/01/17 06:13:29;;;;;;;47.50;16.75;;;;;;;4.72;87.67;103302.91;5026669;28;20107;-69
2022/01/17 06:15:54;;;;;;;48.10;18.00;;;;;;;4.73;88.00;103314.25;5026708;28;20025;-67
2022/01/17 06:18:19;;;;;;;65.43;19.15;;;;;;;4.75;87.88;103316.06;5026877;28;20040;-69
2022/01/17 06:20:45;;;;;;;60.90;20.20;;;;;;;4.74;88.08;103314.31;5027373;28;20108;-68
2022/01/17 06:23:10;;;;;;;54.30;19.70;;;;;;;4.68;87.94;103320.22;5027173;28;20120;-68
2022/01/17 06:25:35;;;;;;;49.60;20.20;;;;;;;4.58;87.72;103328.63;5026549;28;20159;-68
2022/01/17 06:28:01;;;;;;;51.83;18.13;;;;;;;4.57;87.88;103331.19;5019714;28;20061;-68
2022/01/17 06:30:26;;;;;;;50.42;19.40;;;;;;;4.54;87.64;103327.63;5008046;28;20492;-69
2022/01/17 06:32:52;;;;;;;45.75;18.65;;;;;;;4.53;87.67;103315.41;5005232;28;20014;-68
2022/01/17 06:35:17;;;;;;;54.60;20.27;;;;;;;4.54;87.99;103314.56;5007826;28;20033;-68
2022/01/17 06:37:44;;;;;;;54.55;19.48;;;;;;;4.51;87.91;103322.28;5007264;28;20030;-68
2022/01/17 06:40:10;;;;;;;57.13;18.75;;;;;;;4.49;88.18;103339.63;5006955;28;20488;-69
2022/01/17 06:42:36;;;;;;;52.00;17.08;;;;;;;4.51;87.82;103335.34;5006921;28;20048;-70
2022/01/17 06:45:04;;;;;;;53.95;17.90;;;;;;;4.50;87.83;103317.94;5005352;28;20033;-68
2022/01/17 06:47:30;;;;;;;54.53;18.15;;;;;;;4.48;87.82;103311.75;5007374;28;20026;-67
2022/01/17 06:49:56;;;;;;;50.70;17.05;;;;;;;4.51;87.73;103313.56;5006812;28;20092;-70
2022/01/17 06:52:23;;;;;;;47.22;16.02;;;;;;;4.49;87.64;103321.34;5004719;28;20021;-68
2022/01/17 06:54:48;;;;;;;39.05;16.25;;;;;;;4.43;87.92;103340.31;5005812;28;20041;-68
2022/01/17 06:57:13;;;;;;;42.17;14.60;;;;;;;4.36;87.82;103350.53;5006668;28;20033;-67
2022/01/17 06:59:39;;;;;;;54.95;16.17;;;;;;;4.37;87.84;103362.75;5005176;28;20057;-66
2022/01/17 07:02:04;;;;;;;42.92;12.75;;;;;;;4.36;87.96;103361.84;5005028;28;20077;-71
2022/01/17 07:04:29;;;;;;;39.53;13.32;;;;;;;4.35;87.99;103372.25;5004910;28;20113;-73
2022/01/17 07:06:55;;;;;;;50.35;12.65;;;;;;;4.28;87.90;103395.53;5003494;28;20463;-73
2022/01/17 07:09:21;;;;;;;38.35;12.23;;;;;;;4.25;87.83;103378.88;5004519;28;20452;-74
2022/01/17 07:11:47;;;;;;;39.78;10.10;;;;;;;4.21;88.03;103369.19;5002453;28;20377;-76
2022/01/17 07:14:12;;;;;;;40.00;9.63;;;;;;;4.22;87.96;103365.75;5007351;28;20072;-65
2022/01/17 07:16:40;;;;;;;31.98;8.75;;;;;;;4.22;87.92;103366.63;5004453;28;20546;-62
2022/01/17 07:19:05;;;;;;;27.13;7.63;;;;;;;4.24;87.95;103370.16;5006429;28;20026;-68
2022/01/17 07:21:32;;;;;;;39.00;8.90;;;;;;;4.30;87.60;103367.75;5006330;28;20022;-76
2022/01/17 07:23:58;;;;;;;35.15;7.15;;;;;;;4.41;87.18;103369.84;5005796;28;20026;-77
2022/01/17 07:26:23;;;;;;;21.95;6.50;;;;;;;4.46;86.75;103365.66;5006198;28;20041;-77
2022/01/17 07:28:49;;;;;;;31.92;6.57;;;;;;;4.51;86.19;103371.91;5006731;28;20153;-75
2022/01/17 07:31:16;;;;;;;21.23;5.60;;;;;;;4.57;85.73;103380.78;5005273;28;20022;-76
2022/01/17 07:33:41;;;;;;;31.42;5.78;;;;;;;4.61;85.55;103386.13;5020751;28;20026;-75
2022/01/17 07:36:07;;;;;;;20.00;4.50;;;;;;;4.74;84.83;103397.88;4986834;28;20437;-75
2022/01/17 07:38:33;;;;;;;20.52;4.82;;;;;;;4.82;84.52;103413.81;4985249;28;20543;-71
2022/01/17 07:40:59;;;;;;;19.88;4.82;;;;;;;4.87;84.27;103411.31;4975764;28;20037;-72
2022/01/17 07:43:24;;;;;;;22.33;4.30;;;;;;;4.92;84.04;103415.88;4993018;28;20080;-71
2022/01/17 07:49:23;;;;;;;33.08;5.78;;;;;;;5.09;83.41;103398.94;4972391;28;20044;-74
2022/01/17 07:51:30;;;;;;;25.13;5.38;;;;;;;5.09;83.36;103414.63;4985816;28;20041;-71
2022/01/17 07:53:56;;;;;;;21.85;3.83;;;;;;;5.15;83.19;103409.59;5004457;28;20524;-71
2022/01/17 07:56:25;;;;;;;21.80;3.97;;;;;;;5.18;83.09;103413.16;4991861;28;20033;-70
2022/01/17 07:58:50;;;;;;;16.00;3.90;;;;;;;5.21;83.25;103422.81;4978060;28;20644;-72
2022/01/17 08:01:16;;;;;;;30.38;4.88;;;;;;;5.29;82.93;103410.88;4996868;28;20612;-70
2022/01/17 08:03:41;;;;;;;26.77;4.40;;;;;;;5.34;82.82;103413.63;5005282;28;20041;-72
2022/01/17 08:06:07;;;;;;;28.23;5.82;;;;;;;5.36;82.77;103424.16;5005526;28;20486;-71
2022/01/17 08:08:32;;;;;;;20.25;3.92;;;;;;;5.36;82.54;103424.16;5003328;28;20033;-69
2022/01/17 08:10:57;;;;;;;25.95;4.30;;;;;;;5.40;82.83;103429.50;4997970;28;20095;-73
2022/01/17 08:13:23;;;;;;;21.73;3.95;;;;;;;5.45;82.83;103424.44;4985952;28;20062;-70
2022/01/17 08:15:48;;;;;;;36.05;5.10;;;;;;;5.50;82.85;103435.00;4985423;28;20030;-70
2022/01/17 08:18:14;;;;;;;34.45;4.95;;;;;;;5.54;82.65;103440.38;4996357;28;20022;-72
2022/01/17 08:20:40;;;;;;;36.28;4.85;;;;;;;5.56;82.60;103436.06;5005114;28;20110;-70
2022/01/17 08:23:06;;;;;;;27.88;3.92;;;;;;;5.58;82.65;103438.75;5011982;28;20025;-72
2022/01/17 08:25:32;;;;;;;35.70;6.53;;;;;;;5.61;82.70;103435.31;5011814;28;20017;-71
2022/01/17 08:27:57;;;;;;;27.23;4.00;;;;;;;5.63;82.92;103436.25;4993842;28;20030;-71
2022/01/17 08:30:23;;;;;;;31.52;4.60;;;;;;;5.68;82.78;103429.41;4992559;28;20445;-70
2022/01/17 08:32:49;;;;;;;21.52;4.03;;;;;;;5.71;82.93;103433.84;4990235;28;20131;-73
2022/01/17 08:35:14;;;;;;;25.60;4.00;;;;;;;5.76;82.77;103433.16;4993281;28;20065;-72
2022/01/17 08:37:40;;;;;;;19.77;4.35;;;;;;;5.82;82.59;103438.53;4992559;28;20065;-71
2022/01/17 08:40:06;;;;;;;25.92;4.05;;;;;;;5.82;82.68;103428.06;4991564;28;20029;-69
2022/01/17 08:42:33;;;;;;;26.65;5.25;;;;;;;5.91;82.47;103426.56;4990392;28;20445;-72
2022/01/17 08:44:59;;;;;;;22.90;4.35;;;;;;;5.97;82.38;103416.25;4987368;28;20037;-72
2022/01/17 08:47:25;;;;;;;29.95;4.40;;;;;;;6.03;81.96;103421.66;4973255;28;20334;-71
2022/01/17 08:49:50;;;;;;;33.95;5.30;;;;;;;6.07;81.81;103436.63;4972042;28;20031;-71
2022/01/17 08:52:16;;;;;;;24.58;4.85;;;;;;;6.11;81.74;103439.34;5001555;28;20025;-70
2022/01/17 08:54:43;;;;;;;29.20;5.72;;;;;;;6.15;81.71;103433.34;5001924;28;20026;-70
2022/01/17 08:57:09;;;;;;;24.52;4.90;;;;;;;6.17;81.53;103440.38;4993161;28;20022;-71
2022/01/17 08:59:34;;;;;;;28.83;4.75;;;;;;;6.21;81.70;103443.09;4988255;28;20444;-71
2022/01/17 09:02:00;;;;;;;29.95;4.25;;;;;;;6.25;81.41;103444.94;4990147;28;20072;-68
2022/01/17 09:04:25;;;;;;;27.50;3.45;;;;;;;6.30;81.34;103454.66;4990220;28;20522;-72
2022/01/17 09:06:50;;;;;;;25.70;4.03;;;;;;;6.32;81.67;103449.47;4990062;28;20108;-70
2022/01/17 09:09:19;;;;;;;17.75;3.25;;;;;;;6.36;81.31;103453.06;4989410;28;20030;-70
2022/01/17 09:11:44;;;;;;;27.63;4.13;;;;;;;6.39;81.47;103461.91;4988186;28;20053;-62
2022/01/17 09:14:10;;;;;;;22.58;3.60;;;;;;;6.45;81.34;103461.19;4990272;28;20447;-71
2022/01/17 09:16:36;;;;;;;21.70;3.30;;;;;;;6.59;80.91;103473.75;4992670;28;20105;-72
2022/01/17 09:19:04;;;;;;;19.58;3.50;;;;;;;6.62;80.78;103479.94;4991577;28;20060;-71
2022/01/17 09:21:29;;;;;;;27.95;4.80;;;;;;;6.66;80.63;103481.81;4992649;28;20469;-70
2022/01/17 09:23:57;;;;;;;25.23;4.22;;;;;;;6.72;80.64;103486.31;4979033;28;20053;-72
2022/01/17 09:26:27;;;;;;;21.45;3.45;;;;;;;6.77;80.79;103489.91;4972609;28;20038;-71
2022/01/17 09:28:53;;;;;;;24.67;4.55;;;;;;;6.79;80.57;103493.47;4976843;28;21123;-70
2022/01/17 09:31:19;;;;;;;30.40;5.32;;;;;;;6.82;80.52;103492.66;4987795;28;20033;-71
2022/01/17 09:33:44;;;;;;;22.10;3.60;;;;;;;6.92;80.32;103493.75;4996311;28;21359;-67
2022/01/17 09:36:10;;;;;;;27.23;4.00;;;;;;;7.00;80.02;103497.47;4993187;28;20026;-74
2022/01/17 09:38:35;;;;;;;23.73;3.60;;;;;;;7.04;79.90;103493.16;4980421;28;20033;-72
2022/01/17 09:41:01;;;;;;;34.08;3.95;;;;;;;7.01;79.94;103493.97;4984883;28;20072;-74
2022/01/17 09:43:27;;;;;;;36.50;5.18;;;;;;;7.06;80.04;103496.72;4988187;28;20380;-72
2022/01/17 09:45:52;;;;;;;19.65;3.55;;;;;;;7.08;79.74;103490.66;4983374;28;20060;-73
2022/01/17 09:48:21;;;;;;;23.05;3.40;;;;;;;7.15;79.68;103496.03;4986458;28;20040;-70
2022/01/17 09:50:58;;;;;;;23.17;3.53;;;;;;;7.17;79.39;103502.22;4986991;28;20022;-69
2022/01/17 09:53:25;;;;;;;33.75;4.55;;;;;;;7.26;79.38;103506.78;4984743;28;20778;-73
2022/01/17 09:55:50;;;;;;;32.05;3.90;;;;;;;7.11;79.93;103512.56;4985083;28;20026;-70
2022/01/17 09:58:15;;;;;;;29.17;3.58;;;;;;;7.25;79.10;103523.38;4986236;28;20460;-69
2022/01/17 10:00:43;;;;;;;25.13;3.65;;;;;;;7.28;78.72;103518.19;4984130;28;20037;-74
2022/01/17 10:03:11;;;;;;;27.10;3.78;;;;;;;7.40;78.92;103518.47;4985205;28;20118;-71
2022/01/17 10:05:37;;;;;;;25.50;4.63;;;;;;;7.38;78.84;103528.06;4987073;28;20472;-65
2022/01/17 10:08:13;;;;;;;23.98;3.95;;;;;;;7.42;78.54;103515.88;4985853;28;20084;-67
2022/01/17 10:10:54;;;;;;;23.60;3.13;;;;;;;7.40;78.65;103523.72;4986602;28;20301;-68
2022/01/17 10:13:26;;;;;;;31.95;5.03;;;;;;;7.48;78.26;103547.53;4987309;28;20481;-67
2022/01/17 10:16:14;;;;;;;17.65;3.70;;;;;;;7.54;77.74;103538.91;4984378;28;20029;-64
2022/01/17 10:18:40;;;;;;;25.33;3.58;;;;;;;7.55;78.13;103538.94;4987295;28;20520;-66
2022/01/17 10:21:15;;;;;;;19.75;3.85;;;;;;;7.61;78.14;103548.66;4986152;28;20034;-70
2022/01/17 10:23:56;;;;;;;23.65;3.40;;;;;;;7.64;77.86;103547.84;4984306;28;20068;-69
2022/01/17 10:35:20;;;;;;;19.88;4.13;;;;;;;7.71;77.70;103560.28;4986054;28;20070;-66
2022/01/17 10:38:09;;;;;;;24.00;3.55;;;;;;;7.74;77.69;103549.84;4990033;28;20025;-68
2022/01/17 10:40:40;;;;;;;29.27;3.22;;;;;;;7.69;77.45;103567.22;5006926;28;20483;-62
2022/01/17 10:43:07;;;;;;;26.10;3.53;;;;;;;7.79;77.39;103552.56;4999891;28;20040;-64
2022/01/17 10:45:39;;;;;;;30.98;4.63;;;;;;;7.87;77.70;103552.72;4985539;28;20917;-66
2022/01/17 10:48:05;;;;;;;33.97;3.78;;;;;;;7.93;77.18;103553.75;4985621;28;20037;-74
2022/01/17 10:50:37;;;;;;;24.67;3.38;;;;;;;8.12;77.04;103555.88;4985472;28;20026;-58
2022/01/17 10:53:08;;;;;;;37.20;5.55;;;;;;;8.31;75.85;103547.47;4986994;28;20037;-60
2022/01/17 10:55:40;;;;;;;16.15;2.92;;;;;;;8.55;75.08;103550.59;4986889;28;20680;-63
2022/01/17 10:58:12;;;;;;;26.30;4.00;;;;;;;8.54;74.74;103560.22;4988112;28;20037;-71
2022/01/17 11:00:43;;;;;;;26.05;3.35;;;;;;;8.41;74.93;103566.06;4985835;28;20040;-56
2022/01/17 11:03:11;;;;;;;21.15;3.20;;;;;;;8.32;75.57;103562.41;4983846;28;20050;-57
2022/01/17 11:05:40;;;;;;;23.88;3.28;;;;;;;8.33;75.38;103568.53;4984905;28;20084;-54
2022/01/17 11:08:05;;;;;;;25.10;4.25;;;;;;;8.29;75.41;103572.84;4985810;28;20214;-59
2022/01/17 11:10:43;;;;;;;24.60;3.13;;;;;;;8.30;75.34;103579.88;4986274;28;20032;-60
2022/01/17 11:13:11;;;;;;;20.30;3.13;;;;;;;8.26;75.62;103571.91;4986874;28;20112;-59
2022/01/17 11:15:38;;;;;;;18.95;3.28;;;;;;;8.13;75.63;103590.03;4987037;28;20084;-58
2022/01/17 11:18:17;;;;;;;29.00;3.08;;;;;;;8.07;76.06;103589.91;4984629;28;20025;-60
2022/01/17 11:20:42;;;;;;;27.23;3.95;;;;;;;8.13;76.39;103581.28;4985823;28;20033;-62
2022/01/17 11:23:08;;;;;;;22.80;3.42;;;;;;;8.15;76.00;103584.81;4985753;28;20387;-63
2022/01/17 11:25:36;;;;;;;23.05;3.88;;;;;;;8.04;76.50;103582.84;4984232;28;20418;-60
2022/01/17 11:28:04;;;;;;;26.42;3.78;;;;;;;8.11;76.42;103580.34;4985533;28;20065;-59
2022/01/17 11:30:30;;;;;;;30.45;3.95;;;;;;;8.09;76.17;103580.31;4984909;28;20037;-60
2022/01/17 11:32:56;;;;;;;28.23;4.03;;;;;;;8.09;76.34;103585.56;4985231;28;20077;-60
2022/01/17 11:35:23;;;;;;;25.55;3.88;;;;;;;8.12;76.64;103588.25;4984816;28;20127;-57
2022/01/17 11:37:53;;;;;;;23.73;3.83;;;;;;;8.11;76.42;103582.97;4985345;28;20032;-59
2022/01/17 11:40:37;;;;;;;30.70;3.65;;;;;;;8.08;76.09;103608.34;4984665;28;20570;-62
2022/01/17 11:43:32;;;;;;;27.98;4.10;;;;;;;8.01;76.27;103590.66;4984421;28;20669;-58
2022/01/17 11:45:58;;;;;;;21.92;3.10;;;;;;;8.08;76.38;103592.56;4985154;28;20080;-55
2022/01/17 11:48:29;;;;;;;33.28;3.65;;;;;;;8.12;76.13;103584.78;4979934;28;20026;-58
2022/01/17 11:50:57;;;;;;;26.30;3.78;;;;;;;8.17;76.35;103585.72;4978431;28;20038;-58
2022/01/17 11:53:23;;;;;;;32.78;4.07;;;;;;;8.19;76.00;103594.53;4985547;28;20553;-59
2022/01/17 11:55:49;;;;;;;24.92;4.32;;;;;;;8.20;76.11;103601.56;4986982;28;20074;-60